createdAt,value
2017-07-02T06:25:22.709Z,71.7
2017-07-02T06:26:23.379Z,71.8
2017-07-02T06:27:24.085Z,71.6
2017-07-02T06:28:24.787Z,71.5
2017-07-02T06:29:25.494Z,71.8
2017-07-02T06:30:26.187Z,72.7
2017-07-02T06:31:26.874Z,72.9
2017-07-02T06:32:27.565Z,72.4
2017-07-02T06:33:28.265Z,72.7
2017-07-02T06:34:28.960Z,72.6
2017-07-02T06:35:29.654Z,72.9
2017-07-02T06:36:30.313Z,71.8
2017-07-02T06:37:30.976Z,71.5
2017-07-02T06:38:31.671Z,71.3
2017-07-02T06:39:32.369Z,70.7
2017-07-02T06:40:33.069Z,70.7
2017-07-02T06:41:33.771Z,70.5
2017-07-02T06:42:34.465Z,71.6
2017-07-02T06:43:35.166Z,72.3
2017-07-02T06:44:35.858Z,71.7
2017-07-02T06:45:36.553Z,71.6
2017-07-02T06:46:37.251Z,71.7
2017-07-02T06:47:37.951Z,71.8
2017-07-02T06:48:38.646Z,71.0
2017-07-02T06:49:39.315Z,70.8
2017-07-02T06:50:40.015Z,71.3
2017-07-02T06:51:40.678Z,71.8
2017-07-02T06:52:41.376Z,71.8
2017-07-02T06:53:42.043Z,71.2
2017-07-02T06:54:42.735Z,70.5
2017-07-02T06:55:43.438Z,71.3
2017-07-02T06:56:44.103Z,70.7
2017-07-02T06:57:44.798Z,71.3
2017-07-02T06:58:45.503Z,70.7
2017-07-02T06:59:46.202Z,70.6
2017-07-02T07:00:46.897Z,70.9
2017-07-02T07:01:47.601Z,70.8
2017-07-02T07:02:48.295Z,70.3
2017-07-02T07:03:48.991Z,70.5
2017-07-02T07:04:49.692Z,70.6
2017-07-02T07:05:50.622Z,69.1
2017-07-02T07:06:51.329Z,69.7
2017-07-02T07:07:52.029Z,69.1
2017-07-02T07:08:52.731Z,70.4
2017-07-02T07:09:53.430Z,70.3
2017-07-02T07:10:54.127Z,70.0
2017-07-02T07:11:54.828Z,70.6
2017-07-02T07:12:55.499Z,71.0
2017-07-02T07:13:56.199Z,70.5
2017-07-02T07:14:56.894Z,70.5
2017-07-02T07:15:57.595Z,70.6
2017-07-02T07:16:58.297Z,70.6
2017-07-02T07:17:59.003Z,69.7
2017-07-02T07:18:59.697Z,70.1
2017-07-02T07:20:00.394Z,70.2
2017-07-02T07:21:01.065Z,68.9
2017-07-02T07:22:01.761Z,67.9
2017-07-02T07:23:02.431Z,68.0
2017-07-02T07:24:03.130Z,68.0
2017-07-02T07:25:03.829Z,68.3
2017-07-02T07:26:04.496Z,67.9
2017-07-02T07:27:05.195Z,67.9
2017-07-02T07:28:05.860Z,68.0
2017-07-02T07:29:06.563Z,68.5
2017-07-02T07:32:49.671Z,68.6
2017-07-02T07:33:50.381Z,68.9
2017-07-02T07:34:51.079Z,68.9
2017-07-02T07:35:51.782Z,69.0
2017-07-02T07:36:52.473Z,69.2
2017-07-02T07:37:53.169Z,69.8
2017-07-02T07:38:53.872Z,70.2
2017-07-02T07:39:54.573Z,70.8
2017-07-02T07:40:55.269Z,69.9
2017-07-02T07:41:55.973Z,70.4
2017-07-02T07:42:56.668Z,72.0
2017-07-02T07:43:57.368Z,71.2
2017-07-02T07:44:58.065Z,71.8
2017-07-02T07:45:58.766Z,72.0
2017-07-02T07:46:59.464Z,71.4
2017-07-02T07:48:00.160Z,71.1
2017-07-02T07:49:00.860Z,70.4
2017-07-02T07:50:01.555Z,71.3
2017-07-02T07:51:02.253Z,70.0
2017-07-02T07:52:02.951Z,70.5
2017-07-02T07:53:03.646Z,70.9
2017-07-02T07:54:04.349Z,71.1
2017-07-02T07:55:05.046Z,71.6
2017-07-02T07:56:05.748Z,72.8
2017-07-02T07:57:06.444Z,72.1
2017-07-02T07:58:07.146Z,72.7
2017-07-02T07:59:08.236Z,71.9
2017-07-02T08:00:08.878Z,71.7
2017-07-02T08:01:09.578Z,71.2
2017-07-02T08:02:10.275Z,71.5
2017-07-02T08:03:10.970Z,71.4
2017-07-02T08:04:11.673Z,73.0
2017-07-02T08:05:12.366Z,70.5
2017-07-02T08:06:13.069Z,70.4
2017-07-02T08:07:13.770Z,71.7
2017-07-02T08:08:14.464Z,71.8
2017-07-02T08:09:15.164Z,72.3
2017-07-02T08:10:15.863Z,73.1
2017-07-02T08:11:16.571Z,73.1
2017-07-02T08:12:17.265Z,73.5
2017-07-02T08:13:17.967Z,73.7
2017-07-02T08:14:18.670Z,72.8
2017-07-02T08:15:19.372Z,72.7
2017-07-02T08:16:20.068Z,73.0
2017-07-02T08:17:20.772Z,72.7
2017-07-02T08:18:21.470Z,72.3
2017-07-02T08:19:22.168Z,72.7
2017-07-02T08:20:22.869Z,73.4
2017-07-02T08:21:23.571Z,74.2
2017-07-02T08:22:24.266Z,73.9
2017-07-02T08:23:25.167Z,73.9
2017-07-02T08:24:25.868Z,74.3
2017-07-02T08:25:26.561Z,73.8
2017-07-02T08:26:27.265Z,74.9
2017-07-02T08:27:27.972Z,74.5
2017-07-02T08:28:28.653Z,74.5
2017-07-02T08:29:29.349Z,75.1
2017-07-02T08:30:30.042Z,74.6
2017-07-02T08:31:30.738Z,74.6
2017-07-02T08:32:31.441Z,74.1
2017-07-02T08:33:32.140Z,74.4
2017-07-02T08:34:32.842Z,74.4
2017-07-02T08:35:33.538Z,72.8
2017-07-02T08:36:34.234Z,72.3
2017-07-02T08:37:34.940Z,72.6
2017-07-02T08:38:35.636Z,72.6
2017-07-02T08:39:36.337Z,73.9
2017-07-02T08:40:37.039Z,74.8
2017-07-02T08:41:37.736Z,74.0
2017-07-02T08:42:38.435Z,74.5
2017-07-02T08:43:39.132Z,74.7
2017-07-02T08:44:39.830Z,74.8
2017-07-02T08:45:40.529Z,75.7
2017-07-02T08:46:41.226Z,75.8
2017-07-02T08:47:41.925Z,76.2
2017-07-02T08:48:42.618Z,76.8
2017-07-02T08:49:43.319Z,77.4
2017-07-02T08:50:44.020Z,76.8
2017-07-02T08:51:44.716Z,77.4
2017-07-02T08:52:45.413Z,78.0
2017-07-02T08:53:46.108Z,78.4
2017-07-02T08:54:46.805Z,79.7
2017-07-02T08:55:47.500Z,79.1
2017-07-02T08:56:48.170Z,80.0
2017-07-02T08:57:48.865Z,79.7
2017-07-02T08:58:49.587Z,81.2
2017-07-02T08:59:50.259Z,80.8
2017-07-02T09:00:50.958Z,81.0
2017-07-02T09:01:51.657Z,81.9
2017-07-02T09:02:52.360Z,81.7
2017-07-02T09:03:53.057Z,81.6
2017-07-02T09:04:53.761Z,80.9
2017-07-02T09:05:54.459Z,81.1
2017-07-02T09:06:55.162Z,80.9
2017-07-02T09:09:56.191Z,80.4
2017-07-02T09:10:56.890Z,81.2
2017-07-02T09:11:57.583Z,80.1
2017-07-02T09:12:58.278Z,79.1
2017-07-02T09:13:58.944Z,79.0
2017-07-02T09:14:59.610Z,78.6
2017-07-02T09:16:00.326Z,78.9
2017-07-02T09:17:01.019Z,79.1
2017-07-02T09:18:01.681Z,78.4
2017-07-02T09:19:02.373Z,78.4
2017-07-02T09:20:03.074Z,79.0
2017-07-02T09:21:03.769Z,78.9
2017-07-02T09:22:04.461Z,79.0
2017-07-02T09:23:05.201Z,80.1
2017-07-02T09:24:05.900Z,78.9
2017-07-02T09:25:06.596Z,79.0
2017-07-02T09:26:07.292Z,78.9
2017-07-02T09:27:08.049Z,78.9
2017-07-02T09:28:08.695Z,79.6
2017-07-02T09:29:09.388Z,79.7
2017-07-02T09:30:10.082Z,79.9
2017-07-02T09:31:10.772Z,80.1
2017-07-02T09:32:11.472Z,79.3
2017-07-02T09:33:12.175Z,79.5
2017-07-02T09:34:12.879Z,80.8
2017-07-02T09:35:13.573Z,80.7
2017-07-02T09:36:14.275Z,81.1
2017-07-02T09:37:14.971Z,80.0
2017-07-02T09:38:15.666Z,80.4
2017-07-02T09:39:16.394Z,80.5
2017-07-02T09:40:17.083Z,79.1
2017-07-02T09:41:17.779Z,79.5
2017-07-02T09:42:18.472Z,79.2
2017-07-02T09:43:19.188Z,79.2
2017-07-02T09:44:19.886Z,79.5
2017-07-02T09:45:20.589Z,79.5
2017-07-02T09:46:21.289Z,79.5
2017-07-02T09:47:21.982Z,80.2
2017-07-02T09:48:22.680Z,79.5
2017-07-02T09:49:23.379Z,80.5
2017-07-02T09:50:24.043Z,80.3
2017-07-02T09:51:24.740Z,81.0
2017-07-02T09:52:25.435Z,79.3
2017-07-02T09:53:26.127Z,79.7
2017-07-02T09:54:26.831Z,80.4
2017-07-02T09:55:27.523Z,81.5
2017-07-02T09:56:28.231Z,81.7
2017-07-02T09:57:28.938Z,81.7
2017-07-02T09:58:29.620Z,81.9
2017-07-02T09:59:30.322Z,81.4
2017-07-02T10:00:31.035Z,80.6
2017-07-02T10:01:31.735Z,80.1
2017-07-02T10:02:32.429Z,80.6
2017-07-02T10:03:33.128Z,79.1
2017-07-02T10:04:33.829Z,78.7
2017-07-02T10:05:34.505Z,77.8
2017-07-02T10:06:35.222Z,78.4
2017-07-02T10:07:35.892Z,79.3
2017-07-02T10:08:36.622Z,78.0
2017-07-02T10:09:37.324Z,77.2
2017-07-02T10:10:38.018Z,76.9
2017-07-02T10:11:38.724Z,75.5
2017-07-02T10:12:39.406Z,74.6
2017-07-02T10:13:40.127Z,75.0
2017-07-02T10:14:40.829Z,74.9
2017-07-02T10:15:41.526Z,74.6
2017-07-02T10:16:42.221Z,73.0
2017-07-02T10:17:42.920Z,73.3
2017-07-02T10:18:43.623Z,74.8
2017-07-02T10:19:44.323Z,73.9
2017-07-02T10:20:44.992Z,74.0
2017-07-02T10:21:45.659Z,73.6
2017-07-02T10:22:46.326Z,73.0
2017-07-02T10:23:47.024Z,73.0
2017-07-02T10:24:47.720Z,73.5
2017-07-02T10:25:48.393Z,73.1
2017-07-02T10:26:49.085Z,73.0
2017-07-02T10:27:49.788Z,72.1
2017-07-02T10:28:50.481Z,72.1
2017-07-02T10:29:51.434Z,72.7
2017-07-02T10:30:52.134Z,72.7
2017-07-02T10:31:52.833Z,73.1
2017-07-02T10:32:53.528Z,73.8
2017-07-02T10:33:54.204Z,74.6
2017-07-02T10:34:54.870Z,74.5
2017-07-02T10:35:55.535Z,75.1
2017-07-02T10:36:56.205Z,74.9
2017-07-02T10:37:56.906Z,74.8
2017-07-02T10:38:57.609Z,74.8
2017-07-02T10:39:58.313Z,75.2
2017-07-02T10:40:59.018Z,75.1
2017-07-02T10:41:59.734Z,75.2
2017-07-02T10:43:00.382Z,75.9
2017-07-02T10:44:01.086Z,75.6
2017-07-02T10:45:01.783Z,76.1
2017-07-02T10:46:02.489Z,75.4
2017-07-02T10:47:03.182Z,75.6
2017-07-02T10:48:03.854Z,76.1
2017-07-02T10:49:04.559Z,74.5
2017-07-02T10:50:05.257Z,74.4
2017-07-02T10:51:05.955Z,73.7
2017-07-02T10:52:06.652Z,74.1
2017-07-02T10:53:07.322Z,74.2
2017-07-02T10:54:08.026Z,75.0
2017-07-02T10:55:08.724Z,75.1
2017-07-02T10:56:09.426Z,74.5
2017-07-02T10:57:10.124Z,72.9
2017-07-02T10:58:10.825Z,73.3
2017-07-02T10:59:11.762Z,74.0
2017-07-02T11:00:12.435Z,72.8
2017-07-02T11:01:13.104Z,72.7
2017-07-02T11:02:13.800Z,72.7
2017-07-02T11:03:14.508Z,72.7
2017-07-02T11:04:15.210Z,73.5
2017-07-02T11:05:15.911Z,74.1
2017-07-02T11:06:16.610Z,74.9
2017-07-02T11:07:17.313Z,74.9
2017-07-02T11:08:18.014Z,76.6
2017-07-02T11:09:18.716Z,77.5
2017-07-02T11:10:19.412Z,77.4
2017-07-02T11:11:20.119Z,76.9
2017-07-02T11:12:20.822Z,77.6
2017-07-02T11:13:21.524Z,78.2
2017-07-02T11:14:22.226Z,78.7
2017-07-02T11:15:22.923Z,79.1
2017-07-02T11:16:23.624Z,80.3
2017-07-02T11:17:24.320Z,80.5
2017-07-02T11:18:25.017Z,81.7
2017-07-02T11:19:25.721Z,82.2
2017-07-02T11:20:26.415Z,82.4
2017-07-02T11:21:27.120Z,82.6
2017-07-02T11:22:27.815Z,82.6
2017-07-02T11:23:28.515Z,82.3
2017-07-02T11:24:29.214Z,83.3
2017-07-02T11:25:29.911Z,83.5
2017-07-02T11:26:30.577Z,82.8
2017-07-02T11:27:31.287Z,82.6
2017-07-02T11:28:31.981Z,82.5
2017-07-02T11:29:32.684Z,82.2
2017-07-02T11:30:33.350Z,81.9
2017-07-02T11:31:34.049Z,81.4
2017-07-02T11:32:34.747Z,80.5
2017-07-02T11:33:35.452Z,78.7
2017-07-02T11:34:36.392Z,77.1
2017-07-02T11:35:37.085Z,76.1
2017-07-02T11:36:37.752Z,74.3
2017-07-02T11:37:38.449Z,74.4
2017-07-02T11:38:39.153Z,72.8
2017-07-02T11:39:39.847Z,71.5
2017-07-02T11:40:40.542Z,71.1
2017-07-02T11:41:41.236Z,70.8
2017-07-02T11:42:41.907Z,67.9
2017-07-02T11:43:42.610Z,66.1
2017-07-02T11:44:43.309Z,64.4
2017-07-02T11:45:44.009Z,62.3
2017-07-02T11:46:44.710Z,60.5
2017-07-02T11:47:45.413Z,60.1
2017-07-02T11:48:46.110Z,56.4
2017-07-02T11:49:46.812Z,57.7
2017-07-02T11:50:47.519Z,56.8
2017-07-02T11:51:48.219Z,56.6
2017-07-02T11:52:48.906Z,55.7
2017-07-02T11:53:49.622Z,53.2
2017-07-02T11:54:50.333Z,53.5
2017-07-02T11:55:51.039Z,53.3
2017-07-02T11:56:51.743Z,54.1
2017-07-02T11:57:52.443Z,53.6
2017-07-02T11:58:53.123Z,55.7
2017-07-02T11:59:53.835Z,53.7
2017-07-02T12:00:54.535Z,53.4
2017-07-02T12:01:55.210Z,55.2
2017-07-02T12:02:55.923Z,55.0
2017-07-02T12:03:56.622Z,57.3
2017-07-02T12:04:57.333Z,53.9
2017-07-02T12:05:58.010Z,49.6
2017-07-02T12:06:58.685Z,47.7
2017-07-02T12:07:59.393Z,49.8
2017-07-02T12:09:00.097Z,51.5
2017-07-02T12:10:00.809Z,51.8
2017-07-02T12:11:01.516Z,52.2
2017-07-02T12:12:02.224Z,53.2
2017-07-02T12:13:03.132Z,53.5
2017-07-02T12:14:03.847Z,54.3
2017-07-02T12:15:04.555Z,55.1
2017-07-02T12:16:05.253Z,57.1
2017-07-02T12:17:05.944Z,56.4
2017-07-02T12:18:06.671Z,56.4
2017-07-02T12:19:07.369Z,58.0
2017-07-02T12:20:08.094Z,56.3
2017-07-02T12:21:08.803Z,56.3
2017-07-02T12:22:09.512Z,53.6
2017-07-02T12:23:10.225Z,52.6
2017-07-02T12:24:10.934Z,52.4
2017-07-02T12:25:11.641Z,52.3
2017-07-02T12:26:12.320Z,48.4
2017-07-02T12:27:12.995Z,49.5
2017-07-02T12:28:13.692Z,53.5
2017-07-02T12:29:14.404Z,53.3
2017-07-02T12:30:15.144Z,53.9
2017-07-02T12:31:15.825Z,51.2
2017-07-02T12:32:16.528Z,51.5
2017-07-02T12:33:17.241Z,51.2
2017-07-02T12:34:17.946Z,51.4
2017-07-02T12:35:18.625Z,49.9
2017-07-02T12:36:19.663Z,52.3
2017-07-02T12:37:20.364Z,48.8
2017-07-02T12:38:21.016Z,48.0
2017-07-02T12:39:21.743Z,47.0
2017-07-02T12:40:22.467Z,48.2
2017-07-02T12:41:23.468Z,47.1
2017-07-02T12:42:24.206Z,45.4
2017-07-02T12:43:24.989Z,46.5
2017-07-02T12:44:25.708Z,46.7
2017-07-02T12:45:26.407Z,47.6
2017-07-02T12:46:27.128Z,47.4
2017-07-02T12:47:27.837Z,49.0
2017-07-02T12:48:28.535Z,49.3
2017-07-02T12:49:29.264Z,52.2
2017-07-02T12:50:29.968Z,54.1
2017-07-02T12:51:30.692Z,55.4
2017-07-02T12:52:31.410Z,54.0
2017-07-02T12:53:32.120Z,55.2
2017-07-02T12:54:32.842Z,55.1
2017-07-02T12:55:33.555Z,53.5
2017-07-02T12:56:34.258Z,52.2
2017-07-02T12:57:34.968Z,51.0
2017-07-02T12:58:35.677Z,50.1
2017-07-02T12:59:36.385Z,49.7
2017-07-02T13:00:37.296Z,48.1
2017-07-02T13:01:38.009Z,47.0
2017-07-02T13:02:38.732Z,39.1
2017-07-02T13:03:39.410Z,37.4
2017-07-02T13:04:40.105Z,35.0
2017-07-02T13:05:40.824Z,31.9
2017-07-02T13:06:41.534Z,27.4
2017-07-02T13:07:42.236Z,28.5
2017-07-02T13:08:43.015Z,32.6
2017-07-02T13:09:43.706Z,29.7
2017-07-02T13:10:44.415Z,37.4
2017-07-02T13:11:45.131Z,37.9
2017-07-02T13:12:45.826Z,35.1
2017-07-02T13:13:46.527Z,29.3
2017-07-02T13:14:47.241Z,34.1
2017-07-02T13:15:47.949Z,33.0
2017-07-02T13:16:48.662Z,25.4
2017-07-02T13:17:49.366Z,22.8
2017-07-02T13:18:50.062Z,28.8
2017-07-02T13:19:50.761Z,34.5
2017-07-02T13:20:51.470Z,33.2
2017-07-02T13:21:52.185Z,27.5
2017-07-02T13:22:52.891Z,23.4
2017-07-02T13:23:53.583Z,21.7
2017-07-02T13:24:54.301Z,20.7
2017-07-02T13:25:55.002Z,24.4
2017-07-02T13:26:55.708Z,24.9
2017-07-02T13:27:56.421Z,23.0
2017-07-02T13:28:57.107Z,20.3
2017-07-02T13:29:57.824Z,18.8
2017-07-02T13:30:58.504Z,17.4
2017-07-02T13:31:59.216Z,17.0
2017-07-02T13:32:59.981Z,17.7
2017-07-02T13:34:00.700Z,22.4
2017-07-02T13:35:01.656Z,27.5
2017-07-02T13:36:02.370Z,33.5
2017-07-02T13:37:03.089Z,36.3
2017-07-02T13:38:04.041Z,39.5
2017-07-02T13:39:04.756Z,41.2
2017-07-02T13:40:05.475Z,44.0
2017-07-02T13:41:06.188Z,44.7
2017-07-02T13:42:06.899Z,46.7
2017-07-02T13:43:07.618Z,48.0
2017-07-02T13:44:08.325Z,49.2
2017-07-02T13:45:09.042Z,49.8
2017-07-02T13:46:09.768Z,49.3
2017-07-02T13:47:10.492Z,50.6
2017-07-02T13:48:11.167Z,52.4
2017-07-02T13:49:11.877Z,51.8
2017-07-02T13:50:12.590Z,51.2
2017-07-02T13:51:13.296Z,50.6
2017-07-02T13:52:14.004Z,48.4
2017-07-02T13:53:14.684Z,46.8
2017-07-02T13:54:15.389Z,47.5
2017-07-02T13:55:16.068Z,49.5
2017-07-02T13:56:16.782Z,51.1
2017-07-02T13:57:17.490Z,52.2
2017-07-02T13:58:18.194Z,53.2
2017-07-02T13:59:18.910Z,53.9
2017-07-02T14:00:19.617Z,56.3
2017-07-02T14:01:20.326Z,56.2
2017-07-02T14:02:21.032Z,57.1
2017-07-02T14:03:21.740Z,58.4
2017-07-02T14:04:22.450Z,58.9
2017-07-02T14:05:23.150Z,58.4
2017-07-02T14:06:23.823Z,59.8
2017-07-02T14:07:24.526Z,61.3
2017-07-02T14:08:25.231Z,62.9
2017-07-02T14:09:25.939Z,61.8
2017-07-02T14:10:26.640Z,61.1
2017-07-02T14:11:27.349Z,62.9
2017-07-02T14:12:28.018Z,62.7
2017-07-02T14:13:28.753Z,62.2
2017-07-02T14:14:29.453Z,62.1
2017-07-02T14:15:30.126Z,62.2
2017-07-02T14:16:30.827Z,63.8
2017-07-02T14:17:31.534Z,63.5
2017-07-02T14:18:32.236Z,62.9
2017-07-02T14:19:32.934Z,63.2
2017-07-02T14:20:33.634Z,63.1
2017-07-02T14:21:34.334Z,63.7
2017-07-02T14:22:35.005Z,64.8
2017-07-02T14:23:35.708Z,66.7
2017-07-02T14:24:36.410Z,64.6
2017-07-02T14:25:37.112Z,65.2
2017-07-02T14:26:37.815Z,63.7
2017-07-02T14:27:38.517Z,63.7
2017-07-02T14:28:39.204Z,60.9
2017-07-02T14:29:39.947Z,57.8
2017-07-02T14:30:40.653Z,49.0
2017-07-02T14:31:41.366Z,34.0
2017-07-02T14:32:42.036Z,26.8
2017-07-02T14:33:42.744Z,28.5
2017-07-02T14:34:43.377Z,38.5
2017-07-02T14:35:44.081Z,44.2
2017-07-02T14:36:44.782Z,49.6
2017-07-02T14:37:45.489Z,53.9
2017-07-02T14:38:46.193Z,55.9
2017-07-02T14:39:46.899Z,58.2
2017-07-02T14:40:47.574Z,58.6
2017-07-02T14:41:48.305Z,58.5
2017-07-02T14:42:49.009Z,58.9
2017-07-02T14:43:49.719Z,58.8
2017-07-02T14:44:50.424Z,58.5
2017-07-02T14:45:51.364Z,56.2
2017-07-02T14:46:52.068Z,55.2
2017-07-02T14:47:52.743Z,54.6
2017-07-02T14:48:53.452Z,55.2
2017-07-02T14:49:54.157Z,56.9
2017-07-02T14:50:55.151Z,58.9
2017-07-02T14:51:55.798Z,58.8
2017-07-02T14:52:56.504Z,57.7
2017-07-02T14:53:57.209Z,58.0
2017-07-02T14:54:57.913Z,46.1
2017-07-02T14:55:58.615Z,35.2
2017-07-02T14:56:59.314Z,34.5
2017-07-02T14:58:00.019Z,26.7
2017-07-02T14:59:00.725Z,23.0
2017-07-02T15:00:01.434Z,20.6
2017-07-02T15:01:02.135Z,19.3
2017-07-02T15:02:02.847Z,19.0
2017-07-02T15:03:03.556Z,24.1
2017-07-02T15:04:04.262Z,25.8
2017-07-02T15:05:04.937Z,32.9
2017-07-02T15:06:05.611Z,39.4
2017-07-02T15:07:06.314Z,42.3
2017-07-02T15:08:06.996Z,32.1
2017-07-02T15:09:07.670Z,25.1
2017-07-02T15:10:08.381Z,21.2
2017-07-02T15:11:09.090Z,17.7
2017-07-02T15:12:09.804Z,17.3
2017-07-02T15:13:10.479Z,23.2
2017-07-02T15:14:11.191Z,22.1
2017-07-02T15:15:11.868Z,18.4
2017-07-02T15:16:12.609Z,26.5
2017-07-02T15:17:13.322Z,31.9
2017-07-02T15:18:14.030Z,24.9
2017-07-02T15:19:14.741Z,28.5
2017-07-02T15:20:15.423Z,30.4
2017-07-02T15:21:16.131Z,29.6
2017-07-02T15:22:16.846Z,34.0
2017-07-02T15:23:17.546Z,33.0
2017-07-02T15:24:18.250Z,28.7
2017-07-02T15:25:19.064Z,34.5
2017-07-02T15:26:19.923Z,31.6
2017-07-02T15:27:20.714Z,32.0
2017-07-02T15:28:21.470Z,35.6
2017-07-02T15:29:22.153Z,38.8
2017-07-02T15:30:22.827Z,40.5
2017-07-02T15:31:23.503Z,40.4
2017-07-02T15:32:24.180Z,42.3
2017-07-02T15:33:24.885Z,38.4
2017-07-02T15:34:25.594Z,25.8
2017-07-02T15:35:26.307Z,20.6
2017-07-02T15:36:27.008Z,18.9
2017-07-02T15:37:27.691Z,16.9
2017-07-02T15:38:28.364Z,15.0
2017-07-02T15:39:29.068Z,15.2
2017-07-02T15:40:29.777Z,15.2
2017-07-02T15:41:30.491Z,17.9
2017-07-02T15:42:31.198Z,21.2
2017-07-02T15:43:31.908Z,22.5
2017-07-02T15:44:32.619Z,28.9
2017-07-02T15:45:33.329Z,34.3
2017-07-02T15:46:34.041Z,35.6
2017-07-02T15:47:34.750Z,37.0
2017-07-02T15:48:35.463Z,38.6
2017-07-02T15:49:36.141Z,38.8
2017-07-02T15:50:36.848Z,40.1
2017-07-02T15:51:37.795Z,40.3
2017-07-02T15:52:38.737Z,41.7
2017-07-02T15:53:39.454Z,42.3
2017-07-02T15:54:40.161Z,44.1
2017-07-02T15:55:40.868Z,38.6
2017-07-02T15:56:41.583Z,36.5
2017-07-02T15:57:42.285Z,38.4
2017-07-02T15:58:42.998Z,39.3
2017-07-02T15:59:43.702Z,40.6
2017-07-02T16:00:44.409Z,41.0
2017-07-02T16:01:45.122Z,40.9
2017-07-02T16:02:45.831Z,40.6
2017-07-02T16:03:46.544Z,40.8
2017-07-02T16:04:47.221Z,40.1
2017-07-02T16:05:47.924Z,37.7
2017-07-02T16:06:48.630Z,27.4
2017-07-02T16:07:49.335Z,26.8
2017-07-02T16:08:50.048Z,31.3
2017-07-02T16:09:50.721Z,34.2
2017-07-02T16:10:51.421Z,36.1
2017-07-02T16:11:52.127Z,38.0
2017-07-02T16:12:52.834Z,36.8
2017-07-02T16:13:53.540Z,32.1
2017-07-02T16:14:54.242Z,34.2
2017-07-02T16:15:54.948Z,36.1
2017-07-02T16:16:55.625Z,38.4
2017-07-02T16:17:56.300Z,38.8
2017-07-02T16:18:57.007Z,40.2
2017-07-02T16:19:57.715Z,38.5
2017-07-02T16:20:58.714Z,39.6
2017-07-02T16:21:59.333Z,40.3
2017-07-02T16:23:00.043Z,39.8
2017-07-02T16:24:00.745Z,40.5
2017-07-02T16:25:01.455Z,41.8
2017-07-02T16:26:02.159Z,42.3
2017-07-02T16:27:02.866Z,43.2
2017-07-02T16:28:03.572Z,43.8
2017-07-02T16:29:04.279Z,45.2
2017-07-02T16:30:04.990Z,44.1
2017-07-02T16:31:05.931Z,44.2
2017-07-02T16:32:06.635Z,42.8
2017-07-02T16:33:07.349Z,42.8
2017-07-02T16:34:08.053Z,42.7
2017-07-02T16:35:08.991Z,43.7
2017-07-02T16:36:09.700Z,44.0
2017-07-02T16:37:10.406Z,44.3
2017-07-02T16:38:11.075Z,43.9
2017-07-02T16:39:11.776Z,40.3
2017-07-02T16:40:12.483Z,41.5
2017-07-02T16:41:13.190Z,41.1
2017-07-02T16:42:13.903Z,41.7
2017-07-02T16:43:14.601Z,42.4
2017-07-02T16:44:15.306Z,43.0
2017-07-02T16:45:16.011Z,43.9
2017-07-02T16:46:16.715Z,44.4
2017-07-02T16:47:17.422Z,45.4
2017-07-02T16:48:18.121Z,47.6
2017-07-02T16:49:18.830Z,47.3
2017-07-02T16:50:19.536Z,44.8
2017-07-02T16:51:20.210Z,43.2
2017-07-02T16:52:20.915Z,41.4
2017-07-02T16:53:21.820Z,38.9
2017-07-02T16:54:22.523Z,37.9
2017-07-02T16:55:23.224Z,37.2
2017-07-02T16:56:23.929Z,37.0
2017-07-02T16:57:24.635Z,40.1
2017-07-02T16:58:25.337Z,39.7
2017-07-02T16:59:26.012Z,39.0
2017-07-02T17:00:26.719Z,36.0
2017-07-02T17:01:27.421Z,33.9
2017-07-02T17:02:28.125Z,29.9
2017-07-02T17:03:28.831Z,27.3
2017-07-02T17:04:29.536Z,25.1
2017-07-02T17:05:30.213Z,23.2
2017-07-02T17:06:30.916Z,22.8
2017-07-02T17:07:31.626Z,23.4
2017-07-02T17:08:32.330Z,22.0
2017-07-02T17:09:33.003Z,21.4
2017-07-02T17:10:33.704Z,21.5
2017-07-02T17:11:34.407Z,21.2
2017-07-02T17:12:35.117Z,21.4
2017-07-02T17:13:35.819Z,21.3
2017-07-02T17:14:36.523Z,21.5
2017-07-02T17:15:37.466Z,21.9
2017-07-02T17:16:38.399Z,27.8
2017-07-02T17:17:39.107Z,33.2
2017-07-02T17:18:39.811Z,34.4
2017-07-02T17:19:40.510Z,34.7
2017-07-02T17:20:41.214Z,36.5
2017-07-02T17:21:41.885Z,32.8
2017-07-02T17:22:42.564Z,30.4
2017-07-02T17:23:43.267Z,31.6
2017-07-02T17:24:43.968Z,30.5
2017-07-02T17:25:44.668Z,27.7
2017-07-02T17:26:45.373Z,27.5
2017-07-02T17:27:46.082Z,32.9
2017-07-02T17:28:46.777Z,38.3
2017-07-02T17:29:47.482Z,40.1
2017-07-02T17:30:48.187Z,43.8
2017-07-02T17:31:48.890Z,43.9
2017-07-02T17:32:49.597Z,44.3
2017-07-02T17:33:50.295Z,44.8
2017-07-02T17:34:51.000Z,45.6
2017-07-02T17:35:51.702Z,45.9
2017-07-02T17:36:52.405Z,45.4
2017-07-02T17:37:53.106Z,44.6
2017-07-02T17:38:53.810Z,44.4
2017-07-02T17:39:54.511Z,42.6
2017-07-02T17:40:55.213Z,42.5
2017-07-02T17:41:55.909Z,43.2
2017-07-02T17:42:56.613Z,43.5
2017-07-02T17:43:57.311Z,44.1
2017-07-02T17:44:58.017Z,44.8
2017-07-02T17:45:58.722Z,45.1
2017-07-02T17:46:59.630Z,43.4
2017-07-02T17:48:00.334Z,43.6
2017-07-02T17:49:01.038Z,43.2
2017-07-02T17:50:01.747Z,42.2
2017-07-02T17:51:02.446Z,42.0
2017-07-02T17:52:03.154Z,42.7
2017-07-02T17:53:03.825Z,43.1
2017-07-02T17:54:04.530Z,43.5
2017-07-02T17:55:05.231Z,45.0
2017-07-02T17:56:05.933Z,44.9
2017-07-02T17:57:06.636Z,44.6
2017-07-02T17:58:07.335Z,44.9
2017-07-02T17:59:08.039Z,43.7
2017-07-02T18:00:08.741Z,45.2
2017-07-02T18:01:09.412Z,44.3
2017-07-02T18:02:10.116Z,43.1
2017-07-02T18:03:10.811Z,43.1
2017-07-02T18:04:11.721Z,43.9
2017-07-02T18:05:12.426Z,43.8
2017-07-02T18:06:13.125Z,44.4
2017-07-02T18:07:13.826Z,45.0
2017-07-02T18:08:14.528Z,46.3
2017-07-02T18:09:15.234Z,46.6
2017-07-02T18:10:15.921Z,47.6
2017-07-02T18:11:16.624Z,47.7
2017-07-02T18:12:17.316Z,47.5
2017-07-02T18:13:18.021Z,48.7
2017-07-02T18:14:18.719Z,48.8
2017-07-02T18:15:19.415Z,48.5
2017-07-02T18:16:20.116Z,49.7
2017-07-02T18:17:20.817Z,48.7
2017-07-02T18:18:21.517Z,48.8
2017-07-02T18:19:22.222Z,49.2
2017-07-02T18:20:22.924Z,49.4
2017-07-02T18:21:23.624Z,49.0
2017-07-02T18:22:24.320Z,48.4
2017-07-02T18:23:25.022Z,48.6
2017-07-02T18:24:25.721Z,48.1
2017-07-02T18:25:26.419Z,47.8
2017-07-02T18:26:27.112Z,49.3
2017-07-02T18:27:27.813Z,48.2
2017-07-02T18:28:28.512Z,48.6
2017-07-02T18:29:29.220Z,48.5
2017-07-02T18:30:29.911Z,48.0
2017-07-02T18:31:30.849Z,48.5
2017-07-02T18:32:31.546Z,48.7
2017-07-02T18:33:32.245Z,51.1
2017-07-02T18:34:32.959Z,50.4
2017-07-02T18:35:33.655Z,49.8
2017-07-02T18:36:34.322Z,49.8
2017-07-02T18:37:35.021Z,50.7
2017-07-02T18:38:35.721Z,50.4
2017-07-02T18:39:36.420Z,49.5
2017-07-02T18:40:37.087Z,50.7
2017-07-02T18:41:37.779Z,50.8
2017-07-02T18:42:38.484Z,50.2
2017-07-02T18:43:39.186Z,49.9
2017-07-02T18:44:39.884Z,51.1
2017-07-02T18:45:40.580Z,52.0
2017-07-02T18:46:41.278Z,50.3
2017-07-02T18:47:41.980Z,50.6
2017-07-02T18:48:42.686Z,51.1
2017-07-02T18:49:43.378Z,50.8
2017-07-02T18:50:44.044Z,51.3
2017-07-02T18:51:44.774Z,52.1
2017-07-02T18:52:45.471Z,50.4
2017-07-02T18:53:46.165Z,51.9
2017-07-02T18:54:46.861Z,52.1
2017-07-02T18:55:47.553Z,52.2
2017-07-02T18:56:48.256Z,50.7
2017-07-02T18:57:48.953Z,50.5
2017-07-02T18:58:49.656Z,50.6
2017-07-02T18:59:50.347Z,52.4
2017-07-02T19:00:51.043Z,53.1
2017-07-02T19:01:51.743Z,51.4
2017-07-02T19:02:52.410Z,51.8
2017-07-02T19:03:53.137Z,51.6
2017-07-02T19:04:53.835Z,51.8
2017-07-02T19:05:54.499Z,52.3
2017-07-02T19:06:55.201Z,52.1
2017-07-02T19:07:55.893Z,52.3
2017-07-02T19:08:56.887Z,52.2
2017-07-02T19:09:57.524Z,52.7
2017-07-02T19:10:58.224Z,53.3
2017-07-02T19:11:58.927Z,53.9
2017-07-02T19:12:59.593Z,53.1
2017-07-02T19:14:00.291Z,53.1
2017-07-02T19:15:00.993Z,53.5
2017-07-02T19:16:01.685Z,53.2
2017-07-02T19:17:02.387Z,54.4
2017-07-02T19:18:03.078Z,53.1
2017-07-02T19:19:03.775Z,52.9
2017-07-02T19:20:04.472Z,52.7
2017-07-02T19:21:05.171Z,52.6
2017-07-02T19:22:05.865Z,52.9
2017-07-02T19:23:06.557Z,53.2
2017-07-02T19:24:07.489Z,55.0
2017-07-02T19:25:08.178Z,55.1
2017-07-02T19:26:08.876Z,53.8
2017-07-02T19:27:09.577Z,54.8
2017-07-02T19:28:10.271Z,54.8
2017-07-02T19:29:10.965Z,53.8
2017-07-02T19:30:11.632Z,54.4
2017-07-02T19:31:12.331Z,55.1
2017-07-02T19:32:13.027Z,55.3
2017-07-02T19:33:13.727Z,54.7
2017-07-02T19:34:14.419Z,54.7
2017-07-02T19:35:15.116Z,55.6
2017-07-02T19:36:15.808Z,55.2
2017-07-02T19:37:16.505Z,55.1
2017-07-02T19:38:17.201Z,55.5
2017-07-02T19:39:17.893Z,56.9
2017-07-02T19:40:18.582Z,55.8
2017-07-02T19:41:19.283Z,55.8
2017-07-02T19:42:19.982Z,54.9
2017-07-02T19:43:20.642Z,55.6
2017-07-02T19:44:21.341Z,56.0
2017-07-02T19:45:22.027Z,55.9
2017-07-02T19:46:22.719Z,57.1
2017-07-02T19:47:23.419Z,57.5
2017-07-02T19:48:24.108Z,57.5
2017-07-02T19:49:24.803Z,57.0
2017-07-02T19:50:25.494Z,57.2
2017-07-02T19:51:26.185Z,57.6
2017-07-02T19:52:26.881Z,56.8
2017-07-02T19:53:27.569Z,57.1
2017-07-02T19:54:28.267Z,57.6
2017-07-02T19:55:28.959Z,57.7
2017-07-02T19:56:29.617Z,56.0
2017-07-02T19:57:30.315Z,57.5